Time;durP1;ratioP1;P1;durP2;ratioP2;P2;SDS_P1;SDS_P2;PMS_P1;PMS_P2;Temp;Humidity;BMP_temperature;BMP_pressure;BME280_temperature;BME280_humidity;BME280_pressure;Samples;Min_cycle;Max_cycle;Signal;HPM_P1;HPM_P2
2023/05/18 00:01:32;;;;;;;;;7.25;6.00;;;;;15.56;45.76;101889.25;4976989;28;45332;-61
2023/05/18 00:03:57;;;;;;;;;7.00;5.75;;;;;15.49;46.11;101882.03;4994627;28;45398;-61
2023/05/18 00:06:24;;;;;;;;;5.75;5.75;;;;;15.53;45.53;101880.53;4977402;28;45892;-66
2023/05/18 00:08:49;;;;;;;;;7.40;5.20;;;;;15.51;45.38;101858.63;4976797;28;45451;-63
2023/05/18 00:11:15;;;;;;;;;6.00;6.00;;;;;15.63;45.29;101877.31;4960370;28;45361;-62
2023/05/18 00:13:40;;;;;;;;;5.50;4.50;;;;;15.69;45.64;101876.44;4993348;28;45480;-62
2023/05/18 00:16:06;;;;;;;;;5.50;3.50;;;;;15.68;45.20;101875.59;4994572;28;45277;-63
2023/05/18 00:18:32;;;;;;;;;4.75;4.75;;;;;15.47;45.18;101857.34;4994470;28;46410;-62
2023/05/18 00:20:58;;;;;;;;;7.00;4.40;;;;;15.58;45.20;101877.94;4992508;28;45364;-62
2023/05/18 00:23:31;;;;;;;;;5.25;5.25;;;;;15.49;45.44;101862.66;4996638;28;45347;-63
2023/05/18 00:25:57;;;;;;;;;4.40;4.40;;;;;15.56;45.45;101869.88;4997382;28;45567;-63
2023/05/18 00:28:23;;;;;;;;;5.00;4.00;;;;;15.56;45.43;101863.50;4979772;28;45787;-62
2023/05/18 00:30:48;;;;;;;;;4.00;4.00;;;;;15.57;45.09;101868.81;4997596;28;45284;-62
2023/05/18 00:33:14;;;;;;;;;5.50;5.50;;;;;15.62;45.14;101864.56;4997672;28;45359;-62
2023/05/18 00:35:39;;;;;;;;;2.50;2.50;;;;;15.60;45.16;101864.75;4997882;28;45411;-62
2023/05/18 00:38:05;;;;;;;;;5.75;4.50;;;;;15.51;45.44;101852.22;4997267;28;45577;-63
2023/05/18 00:40:30;;;;;;;;;5.25;4.00;;;;;15.39;45.83;101863.13;4997332;28;45361;-62
2023/05/18 00:42:56;;;;;;;;;5.00;4.00;;;;;15.40;45.61;101864.81;4997511;28;45487;-62
2023/05/18 00:45:21;;;;;;;;;3.75;3.00;;;;;15.35;45.64;101859.06;4997692;28;45446;-63
2023/05/18 00:47:47;;;;;;;;;5.00;4.00;;;;;15.45;45.54;101876.09;4997237;28;46302;-63
2023/05/18 00:50:12;;;;;;;;;4.00;3.00;;;;;15.46;45.60;101875.00;4997571;28;45747;-63
2023/05/18 00:52:38;;;;;;;;;5.50;4.50;;;;;15.43;45.86;101870.75;4997408;28;45507;-62
2023/05/18 00:55:05;;;;;;;;;4.50;4.00;;;;;15.44;45.55;101866.09;4997253;28;45578;-62
2023/05/18 00:57:32;;;;;;;;;5.00;5.00;;;;;15.42;45.92;101877.38;4979527;28;45363;-63
2023/05/18 00:59:58;;;;;;;;;7.80;5.60;;;;;15.33;45.85;101875.91;4979910;28;45305;-63
2023/05/18 01:02:23;;;;;;;;;3.75;3.00;;;;;15.33;46.33;101873.16;4995840;28;45300;-62
2023/05/18 01:04:51;;;;;;;;;3.00;3.00;;;;;15.24;45.83;101863.38;4996999;28;45599;-62
2023/05/18 01:07:17;;;;;;;;;6.80;5.20;;;;;15.30;46.41;101866.13;4995418;28;46807;-62
2023/05/18 01:09:42;;;;;;;;;5.00;4.00;;;;;15.32;46.41;101865.91;4997174;28;45272;-62
2023/05/18 01:12:20;;;;;;;;;5.00;4.00;;;;;15.07;47.28;101854.69;4989539;28;45391;-62
2023/05/18 01:15:00;;;;;;;;;2.80;2.20;;;;;15.10;46.74;101866.16;4992865;28;45405;-63
2023/05/18 01:17:48;;;;;;;;;5.40;5.00;;;;;15.10;46.76;101868.09;4978787;28;46352;-60
2023/05/18 01:20:50;;;;;;;;;5.80;3.00;;;;;15.11;47.31;101861.50;4996855;28;45474;-61
2023/05/18 01:23:41;;;;;;;;;3.20;3.20;;;;;15.03;46.86;101860.66;4996775;28;45398;-61
2023/05/18 01:26:28;;;;;;;;;6.00;4.80;;;;;15.00;47.53;101874.06;4996446;28;45301;-62
2023/05/18 01:28:55;;;;;;;;;6.00;5.60;;;;;15.00;47.25;101860.22;4996429;28;45798;-61
2023/05/18 01:31:20;;;;;;;;;7.00;6.00;;;;;14.92;47.56;101858.53;4979169;28;45369;-61
2023/05/18 01:33:46;;;;;;;;;4.00;4.00;;;;;15.04;47.39;101867.00;5011464;28;45471;-62
2023/05/18 01:36:11;;;;;;;;;5.50;4.25;;;;;14.93;47.09;101863.00;4997089;28;45371;-62
2023/05/18 01:38:37;;;;;;;;;6.75;5.75;;;;;14.79;47.58;101866.81;4996484;28;46524;-60
2023/05/18 01:41:20;;;;;;;;;8.25;6.00;;;;;14.86;48.30;101870.44;4994885;28;45491;-60
2023/05/18 01:44:00;;;;;;;;;5.20;5.20;;;;;14.95;47.56;101871.06;4978850;28;45315;-62
2023/05/18 01:46:32;;;;;;;;;3.80;3.80;;;;;14.91;47.10;101868.72;4978726;28;45376;-62
2023/05/18 01:49:00;;;;;;;;;2.40;2.40;;;;;14.99;47.35;101869.59;4979115;28;46168;-62
2023/05/18 01:51:30;;;;;;;;;6.40;5.00;;;;;14.95;47.22;101868.31;4995958;28;45241;-61
2023/05/18 01:54:01;;;;;;;;;7.60;4.20;;;;;14.87;47.43;101873.00;4979271;28;45431;-62
2023/05/18 01:56:27;;;;;;;;;5.00;5.00;;;;;14.83;47.88;101877.22;4967502;28;45588;-61
2023/05/18 01:58:52;;;;;;;;;7.50;6.25;;;;;14.79;47.84;101877.88;4978600;28;46046;-61
2023/05/18 02:01:18;;;;;;;;;5.25;4.25;;;;;14.71;48.20;101879.75;5011199;28;45370;-61
2023/05/18 02:03:44;;;;;;;;;6.40;4.40;;;;;14.89;48.28;101878.31;4995951;28;45408;-61
2023/05/18 02:06:10;;;;;;;;;6.25;4.00;;;;;14.84;47.77;101878.09;4995946;28;45542;-61
2023/05/18 02:08:36;;;;;;;;;4.00;4.00;;;;;14.81;48.10;101876.59;4995960;28;45999;-60
2023/05/18 02:11:01;;;;;;;;;8.50;5.00;;;;;14.96;47.67;101881.06;4996123;28;45367;-61
2023/05/18 02:13:27;;;;;;;;;8.00;5.00;;;;;14.93;47.78;101879.56;4994414;28;45398;-62
2023/05/18 02:15:52;;;;;;;;;9.00;6.50;;;;;14.89;47.89;101878.31;4978485;28;45354;-62
2023/05/18 02:18:17;;;;;;;;;6.00;6.00;;;;;14.82;48.27;101877.44;5010090;28;46627;-61
2023/05/18 02:20:43;;;;;;;;;9.25;5.75;;;;;14.79;47.86;101878.75;4995537;28;45472;-61
2023/05/18 02:23:08;;;;;;;;;5.50;4.50;;;;;14.76;47.99;101880.00;4995733;28;45544;-61
2023/05/18 02:25:34;;;;;;;;;3.50;3.50;;;;;14.42;48.30;101854.25;4995806;28;45458;-61
2023/05/18 02:27:59;;;;;;;;;5.00;5.00;;;;;14.56;48.59;101877.19;4978046;28;45408;-61
2023/05/18 02:30:25;;;;;;;;;5.25;5.25;;;;;14.58;48.49;101875.06;4995708;28;45422;-61
2023/05/18 02:32:50;;;;;;;;;7.00;6.00;;;;;14.64;48.35;101874.22;4978233;28;45360;-61
2023/05/18 02:35:17;;;;;;;;;6.25;6.25;;;;;14.53;48.51;101879.53;4996403;28;45368;-61
2023/05/18 02:37:43;;;;;;;;;7.80;3.80;;;;;14.59;48.27;101879.56;4995564;28;46439;-61
2023/05/18 02:40:14;;;;;;;;;9.80;6.40;;;;;14.59;48.63;101881.44;4994043;28;45282;-61
2023/05/18 02:42:40;;;;;;;;;7.00;6.40;;;;;14.60;48.43;101874.84;4996056;28;45455;-61
2023/05/18 02:45:07;;;;;;;;;6.50;5.50;;;;;14.53;49.02;101887.81;4995053;28;45899;-61
2023/05/18 02:47:32;;;;;;;;;8.20;5.60;;;;;14.53;48.57;101879.53;4977713;28;48093;-63
2023/05/18 02:49:58;;;;;;;;;5.75;4.75;;;;;14.52;48.66;101886.13;4995190;28;45368;-60
2023/05/18 02:52:23;;;;;;;;;10.00;6.50;;;;;14.28;48.90;101880.13;4995499;28;45826;-63
2023/05/18 02:54:49;;;;;;;;;7.25;5.75;;;;;14.22;49.29;101876.28;4995943;28;45499;-62
2023/05/18 02:57:15;;;;;;;;;7.00;7.00;;;;;14.21;49.82;101878.19;4977314;28;47187;-63
2023/05/18 02:59:40;;;;;;;;;5.50;5.00;;;;;14.23;49.63;101876.09;4976101;28;45783;-62
2023/05/18 03:02:06;;;;;;;;;7.50;7.00;;;;;14.27;48.88;101881.19;4990780;28;45257;-62
2023/05/18 03:04:31;;;;;;;;;5.25;5.25;;;;;14.30;49.40;101872.50;4975887;28;45492;-61
2023/05/18 03:07:01;;;;;;;;;8.00;6.00;;;;;14.34;49.37;101877.38;4975517;28;46638;-61
2023/05/18 03:09:27;;;;;;;;;8.20;7.00;;;;;14.30;49.15;101873.34;4975533;28;45538;-63
2023/05/18 03:11:52;;;;;;;;;6.00;5.00;;;;;14.27;49.23;101873.75;4975889;28;45352;-62
2023/05/18 03:14:18;;;;;;;;;7.00;5.00;;;;;14.22;48.89;101868.00;4976046;28;45518;-61
2023/05/18 03:16:43;;;;;;;;;5.50;5.50;;;;;14.15;49.40;101865.22;4973853;28;47388;-61
2023/05/18 03:19:09;;;;;;;;;10.25;6.75;;;;;14.16;49.69;101877.13;4990304;28;45425;-61
2023/05/18 03:21:35;;;;;;;;;8.00;6.00;;;;;14.13;49.14;101872.03;4975631;28;45469;-62
2023/05/18 03:24:01;;;;;;;;;4.75;4.75;;;;;14.08;49.37;101865.22;4975855;28;45785;-63
2023/05/18 03:26:29;;;;;;;;;10.60;8.60;;;;;14.03;49.53;101867.75;4974639;28;45393;-63
2023/05/18 03:28:58;;;;;;;;;8.00;8.00;;;;;14.14;49.71;101863.53;4975244;28;45443;-62
2023/05/18 03:31:24;;;;;;;;;10.60;6.20;;;;;14.11;49.82;101858.44;4990400;28;45440;-62
2023/05/18 03:33:49;;;;;;;;;12.75;10.50;;;;;14.16;49.58;101866.94;4975467;28;45630;-61
2023/05/18 03:36:15;;;;;;;;;8.75;7.75;;;;;14.17;49.17;101867.78;4974879;28;46107;-62
2023/05/18 03:38:44;;;;;;;;;10.00;10.00;;;;;14.24;49.39;101857.59;4975023;28;45295;-62
2023/05/18 03:41:10;;;;;;;;;6.00;5.40;;;;;13.98;49.59;101841.84;4973836;28;45468;-62
2023/05/18 03:43:37;;;;;;;;;11.20;6.60;;;;;14.08;49.81;101867.13;4974851;28;45498;-63
2023/05/18 03:46:02;;;;;;;;;10.50;6.75;;;;;14.05;49.79;101860.09;4957462;28;46612;-62
2023/05/18 03:48:28;;;;;;;;;7.50;6.25;;;;;14.05;49.77;101857.34;4974617;28;45237;-63
2023/05/18 03:50:53;;;;;;;;;8.50;7.00;;;;;14.09;49.49;101866.09;4974898;28;45384;-63
2023/05/18 03:53:20;;;;;;;;;11.00;7.00;;;;;14.16;49.21;101864.19;4975104;28;45167;-63
2023/05/18 03:55:46;;;;;;;;;6.80;6.40;;;;;14.10;49.16;101860.31;4978985;28;45566;-61
2023/05/18 03:58:11;;;;;;;;;8.25;6.00;;;;;14.07;49.57;101869.03;4994405;28;45461;-61
2023/05/18 04:00:36;;;;;;;;;7.75;7.50;;;;;14.06;49.51;101856.31;4994583;28;45371;-61
2023/05/18 04:03:02;;;;;;;;;8.25;8.25;;;;;14.14;49.49;101860.75;4993152;28;45455;-63
2023/05/18 04:05:28;;;;;;;;;7.00;7.00;;;;;14.03;49.79;101845.66;4993887;28;46054;-62
2023/05/18 04:07:56;;;;;;;;;7.00;7.00;;;;;14.20;49.24;101870.13;4994219;28;45377;-61
2023/05/18 04:10:21;;;;;;;;;10.60;7.80;;;;;14.08;49.08;101869.88;4992941;28;45427;-62
2023/05/18 04:12:47;;;;;;;;;9.25;6.50;;;;;14.02;49.38;101863.28;4994347;28;45594;-62
2023/05/18 04:15:15;;;;;;;;;7.00;7.00;;;;;13.87;49.70;101868.13;4994124;28;45792;-62
2023/05/18 04:17:44;;;;;;;;;7.20;7.00;;;;;13.85;50.05;101878.50;4992362;28;45414;-63
2023/05/18 04:20:13;;;;;;;;;11.40;10.60;;;;;13.86;49.79;101888.50;4994430;28;45253;-62
2023/05/18 04:22:42;;;;;;;;;9.20;7.20;;;;;13.81;49.87;101886.34;4994197;28;45180;-62
2023/05/18 04:25:10;;;;;;;;;11.40;9.60;;;;;13.74;50.12;101882.69;4993571;28;46201;-61
2023/05/18 04:27:37;;;;;;;;;7.60;7.60;;;;;13.72;50.08;101882.06;4966130;28;45871;-62
2023/05/18 04:30:02;;;;;;;;;13.20;10.20;;;;;13.79;49.96;101886.56;4993978;28;45781;-61
2023/05/18 04:32:29;;;;;;;;;6.50;6.50;;;;;13.77;49.80;101885.06;4992857;28;45355;-61
2023/05/18 04:34:57;;;;;;;;;10.00;7.60;;;;;13.73;49.82;101879.13;4994089;28;45603;-61
2023/05/18 04:37:23;;;;;;;;;11.20;8.60;;;;;13.79;49.98;101885.72;4993900;28;45464;-61
2023/05/18 04:39:49;;;;;;;;;10.20;10.20;;;;;13.83;50.15;101900.81;4992592;28;45435;-62
2023/05/18 04:42:17;;;;;;;;;11.75;8.25;;;;;13.86;50.11;101894.03;4976515;28;45450;-63
2023/05/18 04:44:42;;;;;;;;;8.60;8.60;;;;;13.86;49.53;101900.38;4993459;28;46549;-62
2023/05/18 04:47:08;;;;;;;;;9.00;8.25;;;;;13.92;49.32;101895.94;4992616;28;45434;-62
2023/05/18 04:49:33;;;;;;;;;10.00;8.00;;;;;13.94;49.21;101902.13;4994025;28;45377;-61
2023/05/18 04:51:59;;;;;;;;;8.50;5.50;;;;;13.88;49.72;101903.78;4994056;28;45408;-62
2023/05/18 04:54:27;;;;;;;;;11.00;9.75;;;;;13.99;49.31;101907.00;4993596;28;46963;-62
2023/05/18 04:56:52;;;;;;;;;7.80;7.80;;;;;14.00;49.03;101906.81;4993729;28;45389;-62
2023/05/18 04:59:18;;;;;;;;;11.50;10.25;;;;;13.91;49.84;101900.63;4993968;28;45343;-62
2023/05/18 05:01:43;;;;;;;;;12.25;11.00;;;;;14.05;49.34;101909.78;4993776;28;45593;-62
2023/05/18 05:04:09;;;;;;;;;11.00;8.25;;;;;14.04;49.67;101907.25;4993418;28;45804;-62
2023/05/18 05:06:34;;;;;;;;;10.75;8.75;;;;;14.04;49.31;101908.09;4993549;28;45380;-62
2023/05/18 05:09:00;;;;;;;;;14.50;11.50;;;;;14.00;49.05;101904.06;4996386;28;45317;-63
2023/05/18 05:11:25;;;;;;;;;10.75;9.75;;;;;14.04;49.62;101907.25;4997323;28;45327;-62
2023/05/18 05:13:51;;;;;;;;;8.25;8.25;;;;;14.04;49.34;101912.78;4996835;28;46205;-62
2023/05/18 05:16:16;;;;;;;;;10.00;9.25;;;;;14.07;48.89;101909.59;4996806;28;45372;-62
2023/05/18 05:18:42;;;;;;;;;6.75;6.75;;;;;14.11;48.92;101908.13;4996771;28;45261;-63
2023/05/18 05:21:08;;;;;;;;;11.50;10.00;;;;;14.16;48.84;101904.72;4996874;28;45321;-61
2023/05/18 05:23:33;;;;;;;;;11.40;8.20;;;;;14.18;48.93;101909.00;4996777;28;46358;-63
2023/05/18 05:25:59;;;;;;;;;4.75;4.75;;;;;14.17;48.83;101901.78;4996458;28;45761;-62
2023/05/18 05:28:25;;;;;;;;;11.75;9.00;;;;;14.03;48.88;101880.72;4978595;28;45371;-61
2023/05/18 05:30:50;;;;;;;;;10.75;10.00;;;;;14.13;48.61;101908.75;4996441;28;45623;-60
2023/05/18 05:33:16;;;;;;;;;12.00;8.25;;;;;14.08;48.81;101911.28;4978850;28;45377;-60
2023/05/18 05:35:42;;;;;;;;;15.20;12.60;;;;;13.93;48.78;101905.94;4996663;28;45463;-62
2023/05/18 05:38:07;;;;;;;;;10.00;8.25;;;;;13.95;49.51;101924.00;4996519;28;45878;-62
2023/05/18 05:40:33;;;;;;;;;10.00;8.25;;;;;14.02;48.91;101925.91;4996595;28;45511;-62
2023/05/18 05:42:58;;;;;;;;;13.00;10.00;;;;;14.01;48.96;101925.06;4996430;28;46149;-62
2023/05/18 05:45:27;;;;;;;;;10.25;7.25;;;;;14.02;48.69;101921.25;4996265;28;45396;-62
2023/05/18 05:47:52;;;;;;;;;11.80;10.40;;;;;14.09;48.65;101932.34;4963180;28;45396;-63
2023/05/18 05:50:18;;;;;;;;;12.00;9.75;;;;;14.09;49.15;101932.34;4996535;28;45321;-62
2023/05/18 05:52:43;;;;;;;;;12.00;12.00;;;;;13.87;49.25;101890.22;4996146;28;46113;-63
2023/05/18 05:55:09;;;;;;;;;9.50;9.50;;;;;14.10;48.58;101923.81;4996148;28;45341;-63
2023/05/18 05:57:34;;;;;;;;;13.75;12.25;;;;;14.03;49.06;101917.44;4976741;28;45409;-63
2023/05/18 06:00:00;;;;;;;;;12.75;12.75;;;;;14.13;49.09;101921.72;4959305;28;45530;-62
2023/05/18 06:02:25;;;;;;;;;14.00;12.75;;;;;14.17;48.46;101923.88;4976138;28;46108;-63
2023/05/18 06:04:51;;;;;;;;;9.75;9.75;;;;;14.13;48.75;101925.31;4976215;28;45418;-62
2023/05/18 06:07:16;;;;;;;;;11.75;7.75;;;;;14.15;48.83;101928.72;4976398;28;45422;-61
2023/05/18 06:09:42;;;;;;;;;13.75;11.75;;;;;14.17;48.43;101931.28;4976384;28;45402;-61
2023/05/18 06:12:08;;;;;;;;;8.50;8.25;;;;;14.22;48.67;101929.63;4976219;28;46605;-61
2023/05/18 06:14:33;;;;;;;;;12.20;9.40;;;;;14.33;48.53;101925.41;4975997;28;45384;-61
2023/05/18 06:16:59;;;;;;;;;10.50;8.25;;;;;14.45;48.60;101928.41;4937137;28;45480;-61
2023/05/18 06:19:25;;;;;;;;;12.50;8.75;;;;;14.47;48.22;101931.78;4990265;28;45523;-60
2023/05/18 06:21:50;;;;;;;;;12.25;10.00;;;;;14.38;48.48;101933.06;4991739;28;45352;-62
2023/05/18 06:24:16;;;;;;;;;13.75;11.25;;;;;14.43;48.33;101935.19;4995447;28;45306;-62
2023/05/18 06:26:41;;;;;;;;;16.25;12.75;;;;;14.53;48.07;101929.25;5002834;28;45403;-62
2023/05/18 06:29:07;;;;;;;;;14.50;13.50;;;;;14.52;47.14;101919.28;5015702;28;45291;-62
2023/05/18 06:31:33;;;;;;;;;13.40;11.40;;;;;14.70;47.52;101938.00;5015717;28;45490;-62
2023/05/18 06:33:59;;;;;;;;;11.75;11.00;;;;;14.73;47.12;101927.38;5015631;28;45405;-62
2023/05/18 06:36:24;;;;;;;;;9.25;9.25;;;;;14.81;46.99;101934.66;5015564;28;45323;-62
2023/05/18 06:38:50;;;;;;;;;13.50;12.25;;;;;14.90;46.15;101933.34;4997865;28;45350;-62
2023/05/18 06:41:15;;;;;;;;;13.50;10.50;;;;;14.95;46.71;101927.22;5015434;28;46545;-62
2023/05/18 06:43:41;;;;;;;;;9.75;8.00;;;;;14.83;46.52;101926.16;4997340;28;45465;-62
2023/05/18 06:46:06;;;;;;;;;12.25;12.25;;;;;14.86;46.12;101929.34;4997844;28;45362;-62
2023/05/18 06:48:32;;;;;;;;;16.50;13.50;;;;;14.91;46.44;101939.75;5015707;28;45366;-63
2023/05/18 06:50:57;;;;;;;;;9.75;9.25;;;;;14.96;46.18;101931.69;5015234;28;45479;-62
2023/05/18 06:53:23;;;;;;;;;13.50;11.50;;;;;15.01;45.70;101934.63;5014773;28;45365;-62
2023/05/18 06:55:48;;;;;;;;;11.75;11.75;;;;;14.91;45.89;101929.53;5013574;28;45426;-60
2023/05/18 06:58:14;;;;;;;;;13.50;11.75;;;;;14.98;46.00;101934.22;4995847;28;45373;-60
2023/05/18 07:00:39;;;;;;;;;13.25;10.25;;;;;14.96;46.14;101925.28;4995004;28;46172;-61
2023/05/18 07:03:05;;;;;;;;;11.25;9.25;;;;;14.90;46.13;101933.34;4977015;28;45337;-61
2023/05/18 07:05:30;;;;;;;;;10.00;9.75;;;;;15.08;46.28;101931.88;4994982;28;45198;-61
2023/05/18 07:07:56;;;;;;;;;11.50;11.50;;;;;15.00;46.50;101927.41;4995456;28;45357;-62
2023/05/18 07:10:21;;;;;;;;;14.75;11.75;;;;;15.12;46.23;101929.53;4977346;28;46378;-60
2023/05/18 07:12:48;;;;;;;;;11.75;9.75;;;;;15.14;45.59;101931.03;4977471;28;45360;-60
2023/05/18 07:15:13;;;;;;;;;13.60;9.60;;;;;15.15;45.44;101931.88;4977268;28;45335;-61
2023/05/18 07:17:39;;;;;;;;;14.50;12.00;;;;;15.21;44.93;101924.66;5010078;28;45566;-61
2023/05/18 07:20:06;;;;;;;;;13.25;10.25;;;;;15.29;44.80;101925.28;4977060;28;45749;-59
2023/05/18 07:22:32;;;;;;;;;13.00;10.20;;;;;15.23;44.80;101934.44;5010023;28;45446;-59
2023/05/18 07:24:58;;;;;;;;;9.00;9.00;;;;;15.19;45.43;101938.69;4994714;28;45473;-62
2023/05/18 07:27:23;;;;;;;;;13.00;9.00;;;;;15.21;44.64;101938.47;4994840;28;45348;-61
2023/05/18 07:29:49;;;;;;;;;11.00;9.75;;;;;15.34;45.26;101932.06;4977200;28;46218;-60
2023/05/18 07:32:15;;;;;;;;;15.25;12.50;;;;;15.38;44.05;101897.38;4995137;28;45575;-63
2023/05/18 07:34:42;;;;;;;;;16.50;13.00;;;;;15.63;44.52;101929.91;4995093;28;45391;-61
2023/05/18 07:37:08;;;;;;;;;11.60;9.60;;;;;15.69;44.08;101917.97;4993781;28;45622;-61
2023/05/18 07:39:33;;;;;;;;;15.00;10.80;;;;;15.72;43.94;101909.22;4994741;28;46165;-62
2023/05/18 07:41:59;;;;;;;;;12.25;11.00;;;;;15.93;44.15;101918.31;4977359;28;45309;-60
2023/05/18 07:44:25;;;;;;;;;9.50;8.50;;;;;16.08;43.50;101927.22;4977419;28;45312;-60
2023/05/18 07:46:50;;;;;;;;;10.25;8.25;;;;;16.01;43.30;101906.97;4995382;28;45363;-60
2023/05/18 07:49:16;;;;;;;;;13.00;10.00;;;;;15.99;42.82;101917.44;4994894;28;45975;-59
2023/05/18 07:51:41;;;;;;;;;12.75;10.75;;;;;15.89;42.91;101922.56;4994508;28;45248;-61
2023/05/18 07:54:07;;;;;;;;;10.75;10.00;;;;;15.68;42.79;101899.63;4994712;28;45358;-60
2023/05/18 07:56:33;;;;;;;;;12.20;11.00;;;;;15.81;43.12;101910.66;4988097;28;45300;-62
2023/05/18 07:58:59;;;;;;;;;11.50;10.00;;;;;15.96;43.26;101909.59;4961669;28;45751;-60
2023/05/18 08:01:27;;;;;;;;;14.50;11.50;;;;;15.94;43.08;101903.41;4992984;28;46098;-63
2023/05/18 08:03:55;;;;;;;;;14.00;10.40;;;;;16.03;43.08;101910.41;4994391;28;45463;-60
2023/05/18 08:06:21;;;;;;;;;12.80;9.20;;;;;15.97;42.91;101884.41;4994225;28;45497;-63
2023/05/18 08:08:46;;;;;;;;;14.25;10.75;;;;;16.02;42.47;101894.00;4976941;28;46499;-61
2023/05/18 08:11:12;;;;;;;;;15.50;14.75;;;;;16.01;42.45;101906.16;4976707;28;45420;-62
2023/05/18 08:13:37;;;;;;;;;17.25;11.75;;;;;16.10;42.17;101907.59;4982467;28;45813;-61
2023/05/18 08:16:03;;;;;;;;;13.00;11.75;;;;;15.96;42.29;101907.66;4987608;28;45482;-62
2023/05/18 08:18:28;;;;;;;;;10.75;9.75;;;;;16.12;42.00;101906.28;4987109;28;45394;-62
2023/05/18 08:20:54;;;;;;;;;13.75;10.25;;;;;16.02;41.49;101905.06;4992863;28;45587;-61
2023/05/18 08:23:20;;;;;;;;;11.75;10.00;;;;;16.09;41.69;101897.59;4994154;28;45348;-61
2023/05/18 08:25:46;;;;;;;;;9.80;9.00;;;;;16.20;41.60;101887.72;4994587;28;45384;-60
2023/05/18 08:28:12;;;;;;;;;14.00;10.75;;;;;16.25;41.15;101899.00;5013497;28;46139;-62
2023/05/18 08:30:37;;;;;;;;;12.00;8.75;;;;;16.37;40.73;101899.13;5013875;28;45854;-58
2023/05/18 08:33:03;;;;;;;;;11.00;10.00;;;;;16.40;41.72;101899.53;5013944;28;45201;-61
2023/05/18 08:35:28;;;;;;;;;9.75;9.75;;;;;16.45;41.61;101898.88;5013942;28;45411;-61
2023/05/18 08:37:54;;;;;;;;;10.75;10.00;;;;;16.55;41.63;101890.06;5014039;28;45418;-61
2023/05/18 08:40:19;;;;;;;;;10.75;10.00;;;;;16.62;41.53;101898.31;5013946;28;45370;-60
2023/05/18 08:42:57;;;;;;;;;10.25;10.25;;;;;16.61;41.32;101896.63;5030442;28;45340;-60
2023/05/18 08:45:34;;;;;;;;;9.00;6.40;;;;;16.49;40.91;101890.97;5017334;28;45374;-62
2023/05/18 08:47:59;;;;;;;;;10.60;9.40;;;;;16.46;41.29;101896.94;4999771;28;45475;-59
2023/05/18 08:50:25;;;;;;;;;9.25;7.75;;;;;16.56;41.21;101897.31;4999256;28;45461;-60
2023/05/18 08:52:53;;;;;;;;;10.00;9.00;;;;;16.56;40.06;101891.75;4989711;28;45268;-64
2023/05/18 08:55:19;;;;;;;;;12.40;7.40;;;;;16.56;40.23;101899.22;4986822;28;45895;-63
2023/05/18 08:57:45;;;;;;;;;7.50;7.25;;;;;16.52;40.37;101890.50;4978155;28;45478;-63
2023/05/18 09:00:12;;;;;;;;;10.80;7.60;;;;;16.59;40.50;101896.84;4969477;28;45898;-62
2023/05/18 09:02:38;;;;;;;;;9.40;8.40;;;;;16.56;39.80;101891.75;5007159;28;45571;-62
2023/05/18 09:05:04;;;;;;;;;16.25;10.25;;;;;16.50;40.43;101887.94;5007726;28;45567;-63
2023/05/18 09:07:30;;;;;;;;;11.00;8.40;;;;;16.50;40.21;101887.94;5002613;28;46003;-63
2023/05/18 09:09:55;;;;;;;;;9.25;9.25;;;;;16.47;40.53;101879.22;4961807;28;45542;-63
2023/05/18 09:12:22;;;;;;;;;9.50;9.50;;;;;16.61;40.70;101882.78;4982122;28;45531;-63
2023/05/18 09:14:47;;;;;;;;;14.00;10.40;;;;;16.70;40.09;101888.88;4981467;28;45412;-61
2023/05/18 09:17:13;;;;;;;;;14.00;12.75;;;;;16.62;39.79;101893.63;4995405;28;45747;-63
2023/05/18 09:19:38;;;;;;;;;16.25;11.75;;;;;16.58;40.27;101888.75;4995638;28;45400;-63
2023/05/18 09:22:04;;;;;;;;;15.25;11.25;;;;;16.51;40.01;101884.13;4983310;28;45467;-63
2023/05/18 09:24:30;;;;;;;;;12.25;10.00;;;;;16.63;39.53;101889.78;4994694;28;45468;-62
2023/05/18 09:26:55;;;;;;;;;11.75;9.25;;;;;16.72;39.70;101878.41;5010100;28;46016;-62
2023/05/18 09:29:22;;;;;;;;;12.25;11.50;;;;;16.78;39.73;101886.69;4995866;28;45689;-63
2023/05/18 09:31:48;;;;;;;;;18.00;13.60;;;;;16.83;40.06;101893.47;4989677;28;45481;-61
2023/05/18 09:34:14;;;;;;;;;13.25;12.00;;;;;16.88;39.91;101883.41;4997670;28;45633;-61
2023/05/18 09:36:41;;;;;;;;;16.00;11.80;;;;;16.95;40.18;101897.19;5011072;28;47279;-62
2023/05/18 09:39:10;;;;;;;;;17.00;13.60;;;;;17.09;39.94;101892.44;4996029;28;45346;-61
2023/05/18 09:41:39;;;;;;;;;16.60;10.60;;;;;16.93;38.78;101891.03;4995053;28;45554;-62
2023/05/18 09:44:08;;;;;;;;;11.40;9.40;;;;;16.96;38.87;101890.56;5011134;28;45435;-59
2023/05/18 09:46:36;;;;;;;;;14.20;11.00;;;;;17.03;39.35;101887.78;4977485;28;46563;-62
2023/05/18 09:49:02;;;;;;;;;17.40;13.60;;;;;17.10;39.66;101882.16;4985503;28;45806;-62
2023/05/18 09:51:28;;;;;;;;;13.60;13.60;;;;;17.16;39.29;101879.34;5027174;28;45735;-61
2023/05/18 09:53:57;;;;;;;;;10.00;8.50;;;;;17.16;39.24;101875.69;5005555;28;45711;-63
2023/05/18 09:56:24;;;;;;;;;10.40;9.80;;;;;17.21;38.71;101881.41;5009361;28;48396;-61
2023/05/18 09:58:49;;;;;;;;;13.00;12.40;;;;;17.32;39.09;101879.81;4993846;28;45732;-62
2023/05/18 10:01:15;;;;;;;;;10.00;9.00;;;;;17.42;39.55;101882.06;4977535;28;45338;-62
2023/05/18 10:03:40;;;;;;;;;11.00;10.25;;;;;17.37;38.53;101874.44;4961073;28;45760;-65
2023/05/18 10:06:07;;;;;;;;;11.25;10.00;;;;;17.39;38.26;101858.38;4976859;28;45476;-59
2023/05/18 10:08:35;;;;;;;;;14.00;9.00;;;;;17.63;37.65;101866.88;5010095;28;45506;-60
2023/05/18 10:11:01;;;;;;;;;12.80;11.20;;;;;17.71;38.15;101874.88;4976823;28;45423;-59
2023/05/18 10:13:27;;;;;;;;;12.00;12.00;;;;;17.75;38.49;101876.13;4977352;28;45404;-60
2023/05/18 10:15:57;;;;;;;;;14.00;14.00;;;;;17.78;38.23;101872.03;4977201;28;46442;-60
2023/05/18 10:18:27;;;;;;;;;16.20;12.80;;;;;17.87;37.80;101870.63;4993134;28;45408;-61
2023/05/18 10:20:59;;;;;;;;;14.60;12.60;;;;;17.92;37.95;101869.09;5026105;28;45356;-60
2023/05/18 10:23:26;;;;;;;;;16.20;12.00;;;;;17.78;37.91;101837.84;4993344;28;45621;-60
2023/05/18 10:25:52;;;;;;;;;13.60;12.60;;;;;17.89;37.28;101868.44;4994527;28;46027;-59
2023/05/18 10:28:26;;;;;;;;;12.00;10.00;;;;;17.85;36.34;101864.47;5014420;28;45566;-62
2023/05/18 10:30:53;;;;;;;;;15.40;14.40;;;;;17.85;36.61;101850.56;4998334;28;45276;-61
2023/05/18 10:33:20;;;;;;;;;13.40;12.80;;;;;17.85;36.67;101844.16;4981404;28;45673;-63
2023/05/18 10:35:48;;;;;;;;;17.00;12.60;;;;;18.02;35.74;101856.31;4979946;28;45368;-63
2023/05/18 10:38:17;;;;;;;;;11.00;10.20;;;;;18.15;36.34;101862.81;4997260;28;45481;-63
2023/05/18 10:40:43;;;;;;;;;15.00;12.20;;;;;18.31;36.25;101852.97;5015696;28;45316;-63
2023/05/18 10:43:08;;;;;;;;;15.00;11.75;;;;;18.34;35.33;101834.94;4997903;28;45509;-63
2023/05/18 10:45:34;;;;;;;;;11.75;11.75;;;;;18.47;34.99;101843.06;4980967;28;47719;-63
2023/05/18 10:48:01;;;;;;;;;9.00;9.00;;;;;18.43;34.40;101855.75;4980933;28;45528;-62
2023/05/18 10:50:26;;;;;;;;;16.20;14.00;;;;;18.37;33.91;101848.38;4981710;28;45470;-62
2023/05/18 10:52:52;;;;;;;;;12.00;10.75;;;;;18.37;34.26;101851.97;4998148;28;45605;-63
2023/05/18 10:55:18;;;;;;;;;11.00;10.00;;;;;18.47;33.99;101845.00;5015071;28;45506;-62
2023/05/18 10:57:46;;;;;;;;;7.00;7.00;;;;;18.53;34.26;101844.06;4970133;28;45530;-62
2023/05/18 11:00:13;;;;;;;;;15.60;13.60;;;;;18.46;34.52;101843.31;4945805;28;45730;-62
2023/05/18 11:02:41;;;;;;;;;14.80;12.40;;;;;18.35;34.37;101840.25;4995799;28;45722;-63
2023/05/18 11:05:07;;;;;;;;;13.80;13.40;;;;;18.48;33.34;101839.22;4977813;28;45784;-62
2023/05/18 11:07:33;;;;;;;;;13.00;13.00;;;;;18.52;33.52;101837.63;4977533;28;45428;-61
2023/05/18 11:10:00;;;;;;;;;15.50;10.75;;;;;18.60;33.88;101843.94;4978097;28;45448;-63
2023/05/18 11:12:25;;;;;;;;;13.00;10.60;;;;;18.62;33.43;101836.22;4977688;28;45312;-62
2023/05/18 11:14:52;;;;;;;;;14.75;11.25;;;;;18.65;33.13;101832.94;4977789;28;47051;-63